sensor_id;sensor_type;location;lat;lon;timestamp;temperature;humidity
40960;DHT22;27842;52.272;8.052;2023-05-14T00:00:08;16.60;84.10
40960;DHT22;27842;52.272;8.052;2023-05-14T00:02:34;16.60;84.10
40960;DHT22;27842;52.272;8.052;2023-05-14T00:05:00;16.60;84.30
40960;DHT22;27842;52.272;8.052;2023-05-14T00:07:25;16.50;84.40
40960;DHT22;27842;52.272;8.052;2023-05-14T00:09:55;16.50;84.50
40960;DHT22;27842;52.272;8.052;2023-05-14T00:12:21;16.40;84.60
40960;DHT22;27842;52.272;8.052;2023-05-14T00:14:46;16.50;84.90
40960;DHT22;27842;52.272;8.052;2023-05-14T00:17:12;16.40;84.80
40960;DHT22;27842;52.272;8.052;2023-05-14T00:19:37;16.40;85.00
40960;DHT22;27842;52.272;8.052;2023-05-14T00:22:06;16.50;85.10
40960;DHT22;27842;52.272;8.052;2023-05-14T00:24:32;16.40;85.20
40960;DHT22;27842;52.272;8.052;2023-05-14T00:26:58;16.40;85.30
40960;DHT22;27842;52.272;8.052;2023-05-14T00:29:23;16.40;85.50
40960;DHT22;27842;52.272;8.052;2023-05-14T00:31:49;16.30;85.50
40960;DHT22;27842;52.272;8.052;2023-05-14T00:34:14;16.30;85.60
40960;DHT22;27842;52.272;8.052;2023-05-14T00:36:40;16.30;85.70
40960;DHT22;27842;52.272;8.052;2023-05-14T00:39:06;16.20;85.80
40960;DHT22;27842;52.272;8.052;2023-05-14T00:41:31;16.20;85.90
40960;DHT22;27842;52.272;8.052;2023-05-14T00:43:57;16.20;86.00
40960;DHT22;27842;52.272;8.052;2023-05-14T00:46:22;16.20;86.00
40960;DHT22;27842;52.272;8.052;2023-05-14T00:48:51;16.20;86.10
40960;DHT22;27842;52.272;8.052;2023-05-14T00:51:17;16.10;86.20
40960;DHT22;27842;52.272;8.052;2023-05-14T00:53:44;16.00;86.30
40960;DHT22;27842;52.272;8.052;2023-05-14T00:56:10;16.00;86.40
40960;DHT22;27842;52.272;8.052;2023-05-14T00:58:35;15.90;86.50
40960;DHT22;27842;52.272;8.052;2023-05-14T01:01:01;15.90;86.60
40960;DHT22;27842;52.272;8.052;2023-05-14T01:03:28;15.90;86.70
40960;DHT22;27842;52.272;8.052;2023-05-14T01:09:10;15.90;86.90
40960;DHT22;27842;52.272;8.052;2023-05-14T01:14:24;15.90;86.80
40960;DHT22;27842;52.272;8.052;2023-05-14T01:16:52;15.90;86.90
40960;DHT22;27842;52.272;8.052;2023-05-14T01:22:01;15.80;87.20
40960;DHT22;27842;52.272;8.052;2023-05-14T01:24:27;15.80;87.10
40960;DHT22;27842;52.272;8.052;2023-05-14T01:26:57;15.80;87.10
40960;DHT22;27842;52.272;8.052;2023-05-14T01:29:27;15.80;87.10
40960;DHT22;27842;52.272;8.052;2023-05-14T01:31:54;15.80;87.20
40960;DHT22;27842;52.272;8.052;2023-05-14T01:34:23;15.80;87.30
40960;DHT22;27842;52.272;8.052;2023-05-14T01:36:51;15.70;87.30
40960;DHT22;27842;52.272;8.052;2023-05-14T01:39:18;15.70;87.40
40960;DHT22;27842;52.272;8.052;2023-05-14T01:41:45;15.70;87.50
40960;DHT22;27842;52.272;8.052;2023-05-14T01:44:11;15.60;87.70
40960;DHT22;27842;52.272;8.052;2023-05-14T01:46:36;15.60;87.80
40960;DHT22;27842;52.272;8.052;2023-05-14T01:49:02;15.60;87.80
40960;DHT22;27842;52.272;8.052;2023-05-14T01:51:28;15.60;87.90
40960;DHT22;27842;52.272;8.052;2023-05-14T01:53:53;15.50;87.90
40960;DHT22;27842;52.272;8.052;2023-05-14T01:56:20;15.40;88.60
40960;DHT22;27842;52.272;8.052;2023-05-14T01:58:47;15.50;88.20
40960;DHT22;27842;52.272;8.052;2023-05-14T02:01:13;15.60;87.90
40960;DHT22;27842;52.272;8.052;2023-05-14T02:03:38;15.50;87.70
40960;DHT22;27842;52.272;8.052;2023-05-14T02:06:04;15.40;87.80
40960;DHT22;27842;52.272;8.052;2023-05-14T02:08:30;15.40;87.80
40960;DHT22;27842;52.272;8.052;2023-05-14T02:10:55;15.40;87.70
40960;DHT22;27842;52.272;8.052;2023-05-14T02:13:21;15.40;87.70
40960;DHT22;27842;52.272;8.052;2023-05-14T02:15:46;15.30;87.70
40960;DHT22;27842;52.272;8.052;2023-05-14T02:18:12;15.30;87.70
40960;DHT22;27842;52.272;8.052;2023-05-14T02:20:37;15.20;87.70
40960;DHT22;27842;52.272;8.052;2023-05-14T02:23:03;15.20;87.70
40960;DHT22;27842;52.272;8.052;2023-05-14T02:25:28;15.10;87.60
40960;DHT22;27842;52.272;8.052;2023-05-14T02:27:54;15.10;87.80
40960;DHT22;27842;52.272;8.052;2023-05-14T02:30:20;15.00;87.80
40960;DHT22;27842;52.272;8.052;2023-05-14T02:32:46;15.00;87.90
40960;DHT22;27842;52.272;8.052;2023-05-14T02:35:11;15.00;87.80
40960;DHT22;27842;52.272;8.052;2023-05-14T02:37:37;15.00;87.90
40960;DHT22;27842;52.272;8.052;2023-05-14T02:40:03;15.00;87.90
40960;DHT22;27842;52.272;8.052;2023-05-14T02:42:30;15.00;88.00
40960;DHT22;27842;52.272;8.052;2023-05-14T02:44:55;14.90;88.00
40960;DHT22;27842;52.272;8.052;2023-05-14T02:47:21;14.90;88.00
40960;DHT22;27842;52.272;8.052;2023-05-14T02:49:46;14.90;88.00
40960;DHT22;27842;52.272;8.052;2023-05-14T02:52:12;14.90;88.20
40960;DHT22;27842;52.272;8.052;2023-05-14T02:54:37;14.80;88.20
40960;DHT22;27842;52.272;8.052;2023-05-14T02:57:03;14.80;88.40
40960;DHT22;27842;52.272;8.052;2023-05-14T02:59:29;14.70;88.40
40960;DHT22;27842;52.272;8.052;2023-05-14T03:01:55;14.80;88.50
40960;DHT22;27842;52.272;8.052;2023-05-14T03:04:21;14.80;88.60
40960;DHT22;27842;52.272;8.052;2023-05-14T03:06:46;14.80;88.60
40960;DHT22;27842;52.272;8.052;2023-05-14T03:09:12;14.80;88.40
40960;DHT22;27842;52.272;8.052;2023-05-14T03:11:38;14.80;88.30
40960;DHT22;27842;52.272;8.052;2023-05-14T03:14:04;14.80;88.20
40960;DHT22;27842;52.272;8.052;2023-05-14T03:16:29;14.80;88.40
40960;DHT22;27842;52.272;8.052;2023-05-14T03:18:55;14.70;88.40
40960;DHT22;27842;52.272;8.052;2023-05-14T03:21:20;14.70;88.40
40960;DHT22;27842;52.272;8.052;2023-05-14T03:23:46;14.70;88.40
40960;DHT22;27842;52.272;8.052;2023-05-14T03:26:11;14.70;88.40
40960;DHT22;27842;52.272;8.052;2023-05-14T03:28:37;14.70;88.40
40960;DHT22;27842;52.272;8.052;2023-05-14T03:31:03;14.70;88.30
40960;DHT22;27842;52.272;8.052;2023-05-14T03:33:28;14.70;88.30
40960;DHT22;27842;52.272;8.052;2023-05-14T03:35:54;14.70;88.30
40960;DHT22;27842;52.272;8.052;2023-05-14T03:38:19;14.70;88.30
40960;DHT22;27842;52.272;8.052;2023-05-14T03:40:45;14.60;88.40
40960;DHT22;27842;52.272;8.052;2023-05-14T03:43:10;14.50;88.50
40960;DHT22;27842;52.272;8.052;2023-05-14T03:45:36;14.50;88.60
40960;DHT22;27842;52.272;8.052;2023-05-14T03:48:02;14.50;88.40
40960;DHT22;27842;52.272;8.052;2023-05-14T03:50:27;14.60;88.40
40960;DHT22;27842;52.272;8.052;2023-05-14T03:52:53;14.50;88.40
40960;DHT22;27842;52.272;8.052;2023-05-14T03:55:19;14.50;88.50
40960;DHT22;27842;52.272;8.052;2023-05-14T03:57:46;14.50;88.50
40960;DHT22;27842;52.272;8.052;2023-05-14T04:00:12;14.50;88.30
40960;DHT22;27842;52.272;8.052;2023-05-14T04:02:38;14.40;88.40
40960;DHT22;27842;52.272;8.052;2023-05-14T04:05:03;14.50;88.20
40960;DHT22;27842;52.272;8.052;2023-05-14T04:07:29;14.40;88.00
40960;DHT22;27842;52.272;8.052;2023-05-14T04:09:55;14.50;88.70
40960;DHT22;27842;52.272;8.052;2023-05-14T04:12:21;14.50;87.80
40960;DHT22;27842;52.272;8.052;2023-05-14T04:14:46;14.50;87.70
40960;DHT22;27842;52.272;8.052;2023-05-14T04:17:12;14.50;87.60
40960;DHT22;27842;52.272;8.052;2023-05-14T04:19:37;14.40;87.70
40960;DHT22;27842;52.272;8.052;2023-05-14T04:22:04;14.30;88.50
40960;DHT22;27842;52.272;8.052;2023-05-14T04:24:29;14.30;88.10
40960;DHT22;27842;52.272;8.052;2023-05-14T04:26:55;14.40;88.40
40960;DHT22;27842;52.272;8.052;2023-05-14T04:29:21;14.30;87.70
40960;DHT22;27842;52.272;8.052;2023-05-14T04:31:48;14.30;88.00
40960;DHT22;27842;52.272;8.052;2023-05-14T04:34:14;14.20;88.00
40960;DHT22;27842;52.272;8.052;2023-05-14T04:36:40;14.20;88.10
40960;DHT22;27842;52.272;8.052;2023-05-14T04:39:06;14.20;88.40
40960;DHT22;27842;52.272;8.052;2023-05-14T04:41:33;14.30;88.10
40960;DHT22;27842;52.272;8.052;2023-05-14T04:43:59;14.20;88.10
40960;DHT22;27842;52.272;8.052;2023-05-14T04:46:26;14.20;88.20
40960;DHT22;27842;52.272;8.052;2023-05-14T04:48:52;14.10;88.50
40960;DHT22;27842;52.272;8.052;2023-05-14T04:51:17;14.10;88.70
40960;DHT22;27842;52.272;8.052;2023-05-14T04:53:43;14.00;88.60
40960;DHT22;27842;52.272;8.052;2023-05-14T04:56:08;14.00;88.70
40960;DHT22;27842;52.272;8.052;2023-05-14T04:58:35;14.00;88.80
40960;DHT22;27842;52.272;8.052;2023-05-14T05:01:01;14.00;89.00
40960;DHT22;27842;52.272;8.052;2023-05-14T05:03:27;14.00;89.00
40960;DHT22;27842;52.272;8.052;2023-05-14T05:05:52;14.00;89.10
40960;DHT22;27842;52.272;8.052;2023-05-14T05:08:18;14.00;88.90
40960;DHT22;27842;52.272;8.052;2023-05-14T05:10:43;14.00;89.00
40960;DHT22;27842;52.272;8.052;2023-05-14T05:13:09;14.00;88.80
40960;DHT22;27842;52.272;8.052;2023-05-14T05:15:34;14.10;88.60
40960;DHT22;27842;52.272;8.052;2023-05-14T05:18:00;14.10;88.60
40960;DHT22;27842;52.272;8.052;2023-05-14T05:20:25;14.00;88.70
40960;DHT22;27842;52.272;8.052;2023-05-14T05:22:52;14.00;88.80
40960;DHT22;27842;52.272;8.052;2023-05-14T05:25:18;14.00;88.80
40960;DHT22;27842;52.272;8.052;2023-05-14T05:27:43;14.00;88.90
40960;DHT22;27842;52.272;8.052;2023-05-14T05:30:09;14.00;88.90
40960;DHT22;27842;52.272;8.052;2023-05-14T05:32:35;13.90;88.90
40960;DHT22;27842;52.272;8.052;2023-05-14T05:35:01;13.90;89.00
40960;DHT22;27842;52.272;8.052;2023-05-14T05:37:27;13.90;89.00
40960;DHT22;27842;52.272;8.052;2023-05-14T05:39:53;13.90;89.10
40960;DHT22;27842;52.272;8.052;2023-05-14T05:42:18;13.90;89.20
40960;DHT22;27842;52.272;8.052;2023-05-14T05:44:44;13.90;89.30
40960;DHT22;27842;52.272;8.052;2023-05-14T05:47:09;13.90;89.30
40960;DHT22;27842;52.272;8.052;2023-05-14T05:49:35;13.90;89.40
40960;DHT22;27842;52.272;8.052;2023-05-14T05:52:02;13.90;89.50
40960;DHT22;27842;52.272;8.052;2023-05-14T05:54:30;13.90;90.10
40960;DHT22;27842;52.272;8.052;2023-05-14T05:56:58;14.00;89.50
40960;DHT22;27842;52.272;8.052;2023-05-14T05:59:24;14.00;89.50
40960;DHT22;27842;52.272;8.052;2023-05-14T06:01:50;14.10;89.30
40960;DHT22;27842;52.272;8.052;2023-05-14T06:04:15;14.10;89.20
40960;DHT22;27842;52.272;8.052;2023-05-14T06:06:41;14.20;89.10
40960;DHT22;27842;52.272;8.052;2023-05-14T06:09:07;14.20;89.00
40960;DHT22;27842;52.272;8.052;2023-05-14T06:11:33;14.30;89.00
40960;DHT22;27842;52.272;8.052;2023-05-14T06:13:59;14.30;89.00
40960;DHT22;27842;52.272;8.052;2023-05-14T06:16:25;14.30;89.10
40960;DHT22;27842;52.272;8.052;2023-05-14T06:18:50;14.40;88.90
40960;DHT22;27842;52.272;8.052;2023-05-14T06:21:17;14.40;88.90
40960;DHT22;27842;52.272;8.052;2023-05-14T06:23:43;14.40;88.90
40960;DHT22;27842;52.272;8.052;2023-05-14T06:26:09;14.50;88.70
40960;DHT22;27842;52.272;8.052;2023-05-14T06:28:34;14.50;88.70
40960;DHT22;27842;52.272;8.052;2023-05-14T06:31:00;14.60;88.80
40960;DHT22;27842;52.272;8.052;2023-05-14T06:33:25;14.70;88.60
40960;DHT22;27842;52.272;8.052;2023-05-14T06:36:02;14.80;88.60
40960;DHT22;27842;52.272;8.052;2023-05-14T06:38:28;14.80;88.50
40960;DHT22;27842;52.272;8.052;2023-05-14T06:40:54;14.90;88.30
40960;DHT22;27842;52.272;8.052;2023-05-14T06:43:19;15.00;88.20
40960;DHT22;27842;52.272;8.052;2023-05-14T06:45:52;15.00;88.30
40960;DHT22;27842;52.272;8.052;2023-05-14T06:48:18;15.20;88.00
40960;DHT22;27842;52.272;8.052;2023-05-14T06:50:47;15.30;87.90
40960;DHT22;27842;52.272;8.052;2023-05-14T06:53:13;15.40;87.80
40960;DHT22;27842;52.272;8.052;2023-05-14T06:55:38;15.50;87.70
40960;DHT22;27842;52.272;8.052;2023-05-14T06:58:07;15.60;87.40
40960;DHT22;27842;52.272;8.052;2023-05-14T07:00:33;15.70;87.30
40960;DHT22;27842;52.272;8.052;2023-05-14T07:02:58;15.70;87.30
40960;DHT22;27842;52.272;8.052;2023-05-14T07:05:24;15.80;87.20
40960;DHT22;27842;52.272;8.052;2023-05-14T07:07:50;15.90;87.00
40960;DHT22;27842;52.272;8.052;2023-05-14T07:10:16;16.00;86.80
40960;DHT22;27842;52.272;8.052;2023-05-14T07:12:41;16.20;86.50
40960;DHT22;27842;52.272;8.052;2023-05-14T07:15:08;16.30;86.20
40960;DHT22;27842;52.272;8.052;2023-05-14T07:17:33;16.40;86.10
40960;DHT22;27842;52.272;8.052;2023-05-14T07:19:59;16.50;86.00
40960;DHT22;27842;52.272;8.052;2023-05-14T07:22:24;16.60;85.60
40960;DHT22;27842;52.272;8.052;2023-05-14T07:24:50;16.70;85.40
40960;DHT22;27842;52.272;8.052;2023-05-14T07:27:15;16.80;85.40
40960;DHT22;27842;52.272;8.052;2023-05-14T07:29:42;16.90;85.20
40960;DHT22;27842;52.272;8.052;2023-05-14T07:32:07;17.00;85.10
40960;DHT22;27842;52.272;8.052;2023-05-14T07:34:33;17.10;84.60
40960;DHT22;27842;52.272;8.052;2023-05-14T07:36:59;17.20;84.60
40960;DHT22;27842;52.272;8.052;2023-05-14T07:39:25;17.30;84.60
40960;DHT22;27842;52.272;8.052;2023-05-14T07:41:50;17.40;84.60
40960;DHT22;27842;52.272;8.052;2023-05-14T07:44:16;17.40;84.50
40960;DHT22;27842;52.272;8.052;2023-05-14T07:46:42;17.60;84.20
40960;DHT22;27842;52.272;8.052;2023-05-14T07:49:07;17.60;84.10
40960;DHT22;27842;52.272;8.052;2023-05-14T07:51:33;17.70;83.90
40960;DHT22;27842;52.272;8.052;2023-05-14T07:53:58;17.80;83.90
40960;DHT22;27842;52.272;8.052;2023-05-14T07:56:24;17.90;83.70
40960;DHT22;27842;52.272;8.052;2023-05-14T07:58:50;18.00;83.50
40960;DHT22;27842;52.272;8.052;2023-05-14T08:01:16;18.00;83.40
40960;DHT22;27842;52.272;8.052;2023-05-14T08:03:41;18.10;83.20
40960;DHT22;27842;52.272;8.052;2023-05-14T08:06:07;18.30;82.80
40960;DHT22;27842;52.272;8.052;2023-05-14T08:08:33;18.40;82.60
40960;DHT22;27842;52.272;8.052;2023-05-14T08:10:58;18.50;81.90
40960;DHT22;27842;52.272;8.052;2023-05-14T08:13:24;18.50;81.60
40960;DHT22;27842;52.272;8.052;2023-05-14T08:15:50;18.60;81.30
40960;DHT22;27842;52.272;8.052;2023-05-14T08:18:15;18.70;80.70
40960;DHT22;27842;52.272;8.052;2023-05-14T08:20:41;18.80;80.00
40960;DHT22;27842;52.272;8.052;2023-05-14T08:23:06;18.90;79.80
40960;DHT22;27842;52.272;8.052;2023-05-14T08:25:33;19.00;79.60
40960;DHT22;27842;52.272;8.052;2023-05-14T08:27:59;19.00;79.30
40960;DHT22;27842;52.272;8.052;2023-05-14T08:30:26;19.10;78.90
40960;DHT22;27842;52.272;8.052;2023-05-14T08:32:51;19.10;78.90
40960;DHT22;27842;52.272;8.052;2023-05-14T08:35:17;19.20;78.50
40960;DHT22;27842;52.272;8.052;2023-05-14T08:37:43;19.30;78.10
40960;DHT22;27842;52.272;8.052;2023-05-14T08:40:09;19.30;77.90
40960;DHT22;27842;52.272;8.052;2023-05-14T08:42:37;19.40;78.10
40960;DHT22;27842;52.272;8.052;2023-05-14T08:45:10;19.40;77.90
40960;DHT22;27842;52.272;8.052;2023-05-14T08:47:37;19.50;77.60
40960;DHT22;27842;52.272;8.052;2023-05-14T08:50:05;19.50;77.30
40960;DHT22;27842;52.272;8.052;2023-05-14T08:52:32;19.60;77.50
40960;DHT22;27842;52.272;8.052;2023-05-14T08:54:59;19.70;76.50
40960;DHT22;27842;52.272;8.052;2023-05-14T08:57:27;19.80;76.10
40960;DHT22;27842;52.272;8.052;2023-05-14T08:59:53;19.90;75.60
40960;DHT22;27842;52.272;8.052;2023-05-14T09:02:24;19.90;74.90
40960;DHT22;27842;52.272;8.052;2023-05-14T09:04:55;20.00;74.90
40960;DHT22;27842;52.272;8.052;2023-05-14T09:07:21;20.00;74.30
40960;DHT22;27842;52.272;8.052;2023-05-14T09:09:47;20.00;74.40
40960;DHT22;27842;52.272;8.052;2023-05-14T09:12:12;20.10;73.80
40960;DHT22;27842;52.272;8.052;2023-05-14T09:14:38;20.10;73.90
40960;DHT22;27842;52.272;8.052;2023-05-14T09:17:04;20.10;73.60
40960;DHT22;27842;52.272;8.052;2023-05-14T09:19:30;20.20;73.50
40960;DHT22;27842;52.272;8.052;2023-05-14T09:21:58;20.20;72.90
40960;DHT22;27842;52.272;8.052;2023-05-14T09:24:26;20.20;73.80
40960;DHT22;27842;52.272;8.052;2023-05-14T09:26:57;20.20;73.40
40960;DHT22;27842;52.272;8.052;2023-05-14T09:29:27;20.40;72.10
40960;DHT22;27842;52.272;8.052;2023-05-14T09:31:55;20.40;71.80
40960;DHT22;27842;52.272;8.052;2023-05-14T09:34:24;20.30;71.70
40960;DHT22;27842;52.272;8.052;2023-05-14T09:36:57;20.30;71.90
40960;DHT22;27842;52.272;8.052;2023-05-14T09:39:23;20.40;72.20
40960;DHT22;27842;52.272;8.052;2023-05-14T09:41:49;20.50;71.70
40960;DHT22;27842;52.272;8.052;2023-05-14T09:44:19;20.60;71.50
40960;DHT22;27842;52.272;8.052;2023-05-14T09:46:45;20.50;71.50
40960;DHT22;27842;52.272;8.052;2023-05-14T09:49:11;20.50;71.50
40960;DHT22;27842;52.272;8.052;2023-05-14T09:51:37;20.50;71.90
40960;DHT22;27842;52.272;8.052;2023-05-14T09:54:04;20.60;72.10
40960;DHT22;27842;52.272;8.052;2023-05-14T09:56:31;20.70;72.00
40960;DHT22;27842;52.272;8.052;2023-05-14T09:58:56;20.70;72.00
40960;DHT22;27842;52.272;8.052;2023-05-14T10:01:22;20.80;71.80
40960;DHT22;27842;52.272;8.052;2023-05-14T10:03:49;20.80;72.10
40960;DHT22;27842;52.272;8.052;2023-05-14T10:06:16;20.80;72.00
40960;DHT22;27842;52.272;8.052;2023-05-14T10:08:44;20.80;71.90
40960;DHT22;27842;52.272;8.052;2023-05-14T10:11:15;20.80;72.70
40960;DHT22;27842;52.272;8.052;2023-05-14T10:13:51;20.80;71.60
40960;DHT22;27842;52.272;8.052;2023-05-14T10:16:18;20.90;71.70
40960;DHT22;27842;52.272;8.052;2023-05-14T10:18:49;20.90;71.30
40960;DHT22;27842;52.272;8.052;2023-05-14T10:21:19;21.00;71.70
40960;DHT22;27842;52.272;8.052;2023-05-14T10:23:46;21.00;71.60
40960;DHT22;27842;52.272;8.052;2023-05-14T10:26:12;21.20;71.10
40960;DHT22;27842;52.272;8.052;2023-05-14T10:28:38;21.20;70.90
40960;DHT22;27842;52.272;8.052;2023-05-14T10:31:03;21.30;70.20
40960;DHT22;27842;52.272;8.052;2023-05-14T10:33:29;21.40;70.40
40960;DHT22;27842;52.272;8.052;2023-05-14T10:36:05;21.40;70.20
40960;DHT22;27842;52.272;8.052;2023-05-14T10:38:33;21.50;68.50
40960;DHT22;27842;52.272;8.052;2023-05-14T10:43:27;21.70;69.90
40960;DHT22;27842;52.272;8.052;2023-05-14T10:45:57;21.80;69.90
40960;DHT22;27842;52.272;8.052;2023-05-14T10:48:23;21.90;69.40
40960;DHT22;27842;52.272;8.052;2023-05-14T10:50:50;21.90;69.10
40960;DHT22;27842;52.272;8.052;2023-05-14T10:53:16;22.00;68.50
40960;DHT22;27842;52.272;8.052;2023-05-14T10:55:43;22.00;68.20
40960;DHT22;27842;52.272;8.052;2023-05-14T10:58:10;22.00;68.30
40960;DHT22;27842;52.272;8.052;2023-05-14T11:00:36;22.10;68.20
40960;DHT22;27842;52.272;8.052;2023-05-14T11:03:06;22.10;68.60
40960;DHT22;27842;52.272;8.052;2023-05-14T11:05:32;22.20;68.40
40960;DHT22;27842;52.272;8.052;2023-05-14T11:08:02;22.30;68.50
40960;DHT22;27842;52.272;8.052;2023-05-14T11:10:28;22.40;68.10
40960;DHT22;27842;52.272;8.052;2023-05-14T11:12:55;22.40;68.40
40960;DHT22;27842;52.272;8.052;2023-05-14T11:15:23;22.40;67.30
40960;DHT22;27842;52.272;8.052;2023-05-14T11:17:50;22.50;67.70
40960;DHT22;27842;52.272;8.052;2023-05-14T11:20:16;22.50;64.10
40960;DHT22;27842;52.272;8.052;2023-05-14T11:22:44;22.60;67.70
40960;DHT22;27842;52.272;8.052;2023-05-14T11:25:10;22.70;66.50
40960;DHT22;27842;52.272;8.052;2023-05-14T11:27:39;22.70;66.40
40960;DHT22;27842;52.272;8.052;2023-05-14T11:30:14;22.70;66.30
40960;DHT22;27842;52.272;8.052;2023-05-14T11:32:41;22.80;66.40
40960;DHT22;27842;52.272;8.052;2023-05-14T11:35:07;22.80;66.40
40960;DHT22;27842;52.272;8.052;2023-05-14T11:37:33;22.80;66.20
40960;DHT22;27842;52.272;8.052;2023-05-14T11:39:59;22.80;66.40
40960;DHT22;27842;52.272;8.052;2023-05-14T11:42:25;22.80;66.40
40960;DHT22;27842;52.272;8.052;2023-05-14T11:44:52;22.90;65.10
40960;DHT22;27842;52.272;8.052;2023-05-14T11:47:21;22.80;64.80
40960;DHT22;27842;52.272;8.052;2023-05-14T11:49:47;22.90;65.70
40960;DHT22;27842;52.272;8.052;2023-05-14T11:52:14;22.80;65.60
40960;DHT22;27842;52.272;8.052;2023-05-14T11:54:41;22.90;65.40
40960;DHT22;27842;52.272;8.052;2023-05-14T11:57:12;22.90;65.80
40960;DHT22;27842;52.272;8.052;2023-05-14T11:59:38;22.80;65.90
40960;DHT22;27842;52.272;8.052;2023-05-14T12:02:07;22.80;66.00
40960;DHT22;27842;52.272;8.052;2023-05-14T12:04:32;22.90;65.90
40960;DHT22;27842;52.272;8.052;2023-05-14T12:06:59;22.90;65.70
40960;DHT22;27842;52.272;8.052;2023-05-14T12:09:35;23.00;64.80
40960;DHT22;27842;52.272;8.052;2023-05-14T12:12:10;22.90;64.50
40960;DHT22;27842;52.272;8.052;2023-05-14T12:14:37;22.90;64.90
40960;DHT22;27842;52.272;8.052;2023-05-14T12:17:10;22.90;65.30
40960;DHT22;27842;52.272;8.052;2023-05-14T12:19:38;22.90;65.00
40960;DHT22;27842;52.272;8.052;2023-05-14T12:22:04;23.00;64.60
40960;DHT22;27842;52.272;8.052;2023-05-14T12:24:30;23.10;64.10
40960;DHT22;27842;52.272;8.052;2023-05-14T12:26:56;23.10;63.50
40960;DHT22;27842;52.272;8.052;2023-05-14T12:29:25;23.20;64.40
40960;DHT22;27842;52.272;8.052;2023-05-14T12:31:51;23.30;64.70
40960;DHT22;27842;52.272;8.052;2023-05-14T12:34:17;23.50;64.70
40960;DHT22;27842;52.272;8.052;2023-05-14T12:36:43;23.70;63.10
40960;DHT22;27842;52.272;8.052;2023-05-14T12:39:09;23.80;62.90
40960;DHT22;27842;52.272;8.052;2023-05-14T12:41:35;23.80;63.00
40960;DHT22;27842;52.272;8.052;2023-05-14T12:44:04;23.80;62.80
40960;DHT22;27842;52.272;8.052;2023-05-14T12:46:30;23.80;62.70
40960;DHT22;27842;52.272;8.052;2023-05-14T12:48:56;23.80;63.70
40960;DHT22;27842;52.272;8.052;2023-05-14T12:51:22;23.90;63.30
40960;DHT22;27842;52.272;8.052;2023-05-14T12:53:48;23.80;63.80
40960;DHT22;27842;52.272;8.052;2023-05-14T12:56:14;23.90;63.70
40960;DHT22;27842;52.272;8.052;2023-05-14T12:58:40;24.00;63.60
40960;DHT22;27842;52.272;8.052;2023-05-14T13:01:05;24.20;62.80
40960;DHT22;27842;52.272;8.052;2023-05-14T13:03:31;24.20;62.50
40960;DHT22;27842;52.272;8.052;2023-05-14T13:05:58;24.20;62.10
40960;DHT22;27842;52.272;8.052;2023-05-14T13:08:24;24.20;62.50
40960;DHT22;27842;52.272;8.052;2023-05-14T13:10:51;24.00;61.80
40960;DHT22;27842;52.272;8.052;2023-05-14T13:13:17;23.90;62.50
40960;DHT22;27842;52.272;8.052;2023-05-14T13:15:42;23.80;62.90
40960;DHT22;27842;52.272;8.052;2023-05-14T13:18:13;23.60;63.00
40960;DHT22;27842;52.272;8.052;2023-05-14T13:20:39;23.60;62.40
40960;DHT22;27842;52.272;8.052;2023-05-14T13:23:05;23.50;61.40
40960;DHT22;27842;52.272;8.052;2023-05-14T13:25:30;23.40;61.50
40960;DHT22;27842;52.272;8.052;2023-05-14T13:27:56;23.20;61.90
40960;DHT22;27842;52.272;8.052;2023-05-14T13:30:21;23.10;61.40
40960;DHT22;27842;52.272;8.052;2023-05-14T13:32:47;23.10;61.80
40960;DHT22;27842;52.272;8.052;2023-05-14T13:35:13;23.10;62.00
40960;DHT22;27842;52.272;8.052;2023-05-14T13:37:38;23.20;60.90
40960;DHT22;27842;52.272;8.052;2023-05-14T13:40:06;23.10;61.40
40960;DHT22;27842;52.272;8.052;2023-05-14T13:42:33;23.10;61.80
40960;DHT22;27842;52.272;8.052;2023-05-14T13:44:59;23.00;61.90
40960;DHT22;27842;52.272;8.052;2023-05-14T13:47:25;22.90;61.70
40960;DHT22;27842;52.272;8.052;2023-05-14T13:49:54;23.00;61.80
40960;DHT22;27842;52.272;8.052;2023-05-14T13:52:19;23.20;61.80
40960;DHT22;27842;52.272;8.052;2023-05-14T13:54:46;23.50;61.20
40960;DHT22;27842;52.272;8.052;2023-05-14T13:57:11;23.60;60.90
40960;DHT22;27842;52.272;8.052;2023-05-14T13:59:37;23.90;59.60
40960;DHT22;27842;52.272;8.052;2023-05-14T14:02:04;24.00;59.80
40960;DHT22;27842;52.272;8.052;2023-05-14T14:04:29;24.00;60.00
40960;DHT22;27842;52.272;8.052;2023-05-14T14:06:55;24.10;60.60
40960;DHT22;27842;52.272;8.052;2023-05-14T14:09:21;24.10;60.90
40960;DHT22;27842;52.272;8.052;2023-05-14T14:11:47;24.20;61.00
40960;DHT22;27842;52.272;8.052;2023-05-14T14:14:13;24.20;61.00
40960;DHT22;27842;52.272;8.052;2023-05-14T14:16:38;24.30;60.10
40960;DHT22;27842;52.272;8.052;2023-05-14T14:19:04;24.30;59.80
40960;DHT22;27842;52.272;8.052;2023-05-14T14:21:29;24.20;60.10
40960;DHT22;27842;52.272;8.052;2023-05-14T14:23:56;24.30;60.30
40960;DHT22;27842;52.272;8.052;2023-05-14T14:26:21;24.20;60.30
40960;DHT22;27842;52.272;8.052;2023-05-14T14:28:47;24.30;59.60
40960;DHT22;27842;52.272;8.052;2023-05-14T14:31:13;24.30;59.30
40960;DHT22;27842;52.272;8.052;2023-05-14T14:33:38;24.20;59.70
40960;DHT22;27842;52.272;8.052;2023-05-14T14:36:04;24.20;60.00
40960;DHT22;27842;52.272;8.052;2023-05-14T14:38:30;24.20;59.60
40960;DHT22;27842;52.272;8.052;2023-05-14T14:40:56;24.00;58.80
40960;DHT22;27842;52.272;8.052;2023-05-14T14:43:23;23.90;59.00
40960;DHT22;27842;52.272;8.052;2023-05-14T14:45:48;23.80;59.00
40960;DHT22;27842;52.272;8.052;2023-05-14T14:48:28;23.70;59.30
40960;DHT22;27842;52.272;8.052;2023-05-14T14:51:04;23.60;59.10
40960;DHT22;27842;52.272;8.052;2023-05-14T14:53:31;23.50;59.20
40960;DHT22;27842;52.272;8.052;2023-05-14T14:55:57;23.30;59.20
40960;DHT22;27842;52.272;8.052;2023-05-14T14:58:23;23.40;59.10
40960;DHT22;27842;52.272;8.052;2023-05-14T15:00:51;23.30;59.10
40960;DHT22;27842;52.272;8.052;2023-05-14T15:03:17;23.30;59.40
40960;DHT22;27842;52.272;8.052;2023-05-14T15:05:43;23.30;59.70
40960;DHT22;27842;52.272;8.052;2023-05-14T15:08:09;23.30;59.70
40960;DHT22;27842;52.272;8.052;2023-05-14T15:10:35;23.40;59.60
40960;DHT22;27842;52.272;8.052;2023-05-14T15:13:04;23.40;59.80
40960;DHT22;27842;52.272;8.052;2023-05-14T15:15:31;23.40;59.60
40960;DHT22;27842;52.272;8.052;2023-05-14T15:17:57;23.40;59.80
40960;DHT22;27842;52.272;8.052;2023-05-14T15:20:23;23.40;59.70
40960;DHT22;27842;52.272;8.052;2023-05-14T15:22:48;23.40;59.70
40960;DHT22;27842;52.272;8.052;2023-05-14T15:25:19;23.40;58.60
40960;DHT22;27842;52.272;8.052;2023-05-14T15:27:44;23.30;58.60
40960;DHT22;27842;52.272;8.052;2023-05-14T15:30:10;23.30;59.00
40960;DHT22;27842;52.272;8.052;2023-05-14T15:32:36;23.10;59.30
40960;DHT22;27842;52.272;8.052;2023-05-14T15:35:02;23.10;59.10